New Glasgow, Canada
Current Conditions -  °F | °C
As of 6:00 AM on Tuesday 27 Jan 2015 (Local Time) from CYYG Reporting Station
Light Snow Light Snow  
Wind Chill: -3°   Ceiling: 2100
Heat Index: 16°   Visibility: 12mi
Dew Point:   Wind: 24mph
Humidity: 73%   Direction: 50°NE
Pressure: 30.2"   Gusts: 30mph
Location:  45.59°N, 62.64°W
Report Text: CYYG 271000Z 05021G26KT 12SM -SN BKN021 OVC082 M09/M13 A3020 RMK SC5AS3 PRESFR SLP231
Loading
Personal Weather Stations






























Interactive Weather Map New forecast layout! Learn more

10-Day Weather Forecast

Advertisements
Track Severe Weather on mobile